createdAt,value
2018-04-29T00:02:00.295Z,14.32
2018-04-29T00:04:28.721Z,14.30
2018-04-29T00:06:57.164Z,14.30
2018-04-29T00:09:25.581Z,14.26
2018-04-29T00:11:53.992Z,14.26
2018-04-29T00:14:22.440Z,14.18
2018-04-29T00:16:50.852Z,14.26
2018-04-29T00:19:19.264Z,14.19
2018-04-29T00:21:47.716Z,14.28
2018-04-29T00:24:16.153Z,14.26
2018-04-29T00:26:44.568Z,14.36
2018-04-29T00:29:13.028Z,14.25
2018-04-29T00:31:41.440Z,14.24
2018-04-29T00:34:09.846Z,14.21
2018-04-29T00:36:38.287Z,14.13
2018-04-29T00:39:06.692Z,14.10
2018-04-29T00:41:35.112Z,14.14
2018-04-29T00:44:03.556Z,14.10
2018-04-29T00:46:31.968Z,14.11
2018-04-29T00:49:00.364Z,14.04
2018-04-29T00:51:40.586Z,14.02
2018-04-29T00:54:09.028Z,14.00
2018-04-29T00:56:37.439Z,14.05
2018-04-29T00:59:05.935Z,14.01
2018-04-29T01:01:34.317Z,13.93
2018-04-29T01:04:02.717Z,13.76
2018-04-29T01:06:31.172Z,13.80
2018-04-29T01:08:59.591Z,13.73
2018-04-29T01:11:27.988Z,13.66
2018-04-29T01:13:56.463Z,13.54
2018-04-29T01:16:24.872Z,13.48
2018-04-29T01:18:53.272Z,13.49
2018-04-29T01:21:21.756Z,13.52
2018-04-29T01:23:50.182Z,13.64
2018-04-29T01:26:18.588Z,13.69
2018-04-29T01:28:47.043Z,13.56
2018-04-29T01:31:15.459Z,13.44
2018-04-29T01:33:43.895Z,13.51
2018-04-29T01:36:12.348Z,13.55
2018-04-29T01:38:40.760Z,13.56
2018-04-29T01:41:09.164Z,13.55
2018-04-29T01:43:37.621Z,13.56
2018-04-29T01:46:06.034Z,13.50
2018-04-29T01:48:34.440Z,13.41
2018-04-29T01:51:03.116Z,13.35
2018-04-29T01:53:31.520Z,13.20
2018-04-29T01:55:59.929Z,13.16
2018-04-29T01:58:28.377Z,13.07
2018-04-29T02:00:56.788Z,13.15
2018-04-29T02:03:25.194Z,13.16
2018-04-29T02:05:53.652Z,13.21
2018-04-29T02:08:22.072Z,13.18
2018-04-29T02:10:50.477Z,13.15
2018-04-29T02:13:18.926Z,13.19
2018-04-29T02:15:47.348Z,13.17
2018-04-29T02:18:15.768Z,13.10
2018-04-29T02:20:44.212Z,13.11
2018-04-29T02:23:12.626Z,13.13
2018-04-29T02:25:41.044Z,13.05
2018-04-29T02:28:09.496Z,13.04
2018-04-29T02:30:37.904Z,13.04
2018-04-29T02:33:06.305Z,13.05
2018-04-29T02:35:34.793Z,13.00
2018-04-29T02:38:03.204Z,13.04
2018-04-29T02:40:31.609Z,13.02
2018-04-29T02:43:00.059Z,12.98
2018-04-29T02:45:28.457Z,12.90
2018-04-29T02:47:56.860Z,12.80
2018-04-29T02:50:25.320Z,12.69
2018-04-29T02:52:53.736Z,12.66
2018-04-29T02:55:22.136Z,12.58
2018-04-29T02:57:50.586Z,12.45
2018-04-29T03:00:18.997Z,12.32
2018-04-29T03:02:47.417Z,12.39
2018-04-29T03:05:15.864Z,12.37
2018-04-29T03:07:44.269Z,12.35
2018-04-29T03:10:12.685Z,12.36
2018-04-29T03:12:41.138Z,12.37
2018-04-29T03:15:09.554Z,12.42
2018-04-29T03:17:37.969Z,12.17
2018-04-29T03:20:06.416Z,12.17
2018-04-29T03:22:34.820Z,12.19
2018-04-29T03:25:03.244Z,12.12
2018-04-29T03:27:31.692Z,12.24
2018-04-29T03:30:00.092Z,12.31
2018-04-29T03:32:28.501Z,12.30
2018-04-29T03:34:56.944Z,12.26
2018-04-29T03:37:25.344Z,12.37
2018-04-29T03:39:53.784Z,12.32
2018-04-29T03:42:22.224Z,12.31
2018-04-29T03:44:50.637Z,12.23
2018-04-29T03:47:19.036Z,12.18
2018-04-29T03:49:47.491Z,12.18
2018-04-29T03:52:15.920Z,11.86
2018-04-29T03:54:44.336Z,11.91
2018-04-29T03:57:24.607Z,11.90
2018-04-29T04:00:04.697Z,11.83
2018-04-29T04:02:45.010Z,11.82
2018-04-29T04:05:13.400Z,11.84
2018-04-29T04:07:41.812Z,11.83
2018-04-29T04:10:10.268Z,11.85
2018-04-29T04:12:38.684Z,11.76
2018-04-29T04:15:07.092Z,11.74
2018-04-29T04:17:35.535Z,11.75
2018-04-29T04:20:03.948Z,11.83
2018-04-29T04:22:32.349Z,11.65
2018-04-29T04:25:00.796Z,11.52
2018-04-29T04:27:29.205Z,11.47
2018-04-29T04:29:57.621Z,11.48
2018-04-29T04:32:26.072Z,11.55
2018-04-29T04:34:54.495Z,11.64
2018-04-29T04:37:22.906Z,11.66
2018-04-29T04:39:51.383Z,11.66
2018-04-29T04:42:19.796Z,11.64
2018-04-29T04:44:48.212Z,11.68
2018-04-29T04:47:16.661Z,11.71
2018-04-29T04:49:45.068Z,11.80
2018-04-29T04:52:13.484Z,11.76
2018-04-29T04:54:41.936Z,11.83
2018-04-29T04:57:10.343Z,11.88
2018-04-29T04:59:38.753Z,11.95
2018-04-29T05:02:07.208Z,11.96
2018-04-29T05:04:35.617Z,11.98
2018-04-29T05:07:04.020Z,12.02
2018-04-29T05:09:32.472Z,12.11
2018-04-29T05:12:00.887Z,12.14
2018-04-29T05:14:29.296Z,12.23
2018-04-29T05:16:57.748Z,12.34
2018-04-29T05:19:26.172Z,12.42
2018-04-29T05:21:54.595Z,12.40
2018-04-29T05:24:23.064Z,12.46
2018-04-29T05:26:51.468Z,12.54
2018-04-29T05:29:19.884Z,12.52
2018-04-29T05:31:48.367Z,12.56
2018-04-29T05:34:16.781Z,12.71
2018-04-29T05:36:45.187Z,12.76
2018-04-29T05:39:13.637Z,12.70
2018-04-29T05:41:42.040Z,12.84
2018-04-29T05:44:10.443Z,12.85
2018-04-29T05:46:38.888Z,12.88
2018-04-29T05:49:07.317Z,12.98
2018-04-29T05:51:35.729Z,13.10
2018-04-29T05:54:04.190Z,13.16
2018-04-29T05:56:32.656Z,13.29
2018-04-29T05:59:01.077Z,13.43
2018-04-29T06:01:29.534Z,13.46
2018-04-29T06:03:57.949Z,13.54
2018-04-29T06:06:26.464Z,13.58
2018-04-29T06:08:54.894Z,13.73
2018-04-29T06:11:23.304Z,13.87
2018-04-29T06:13:51.712Z,13.99
2018-04-29T06:16:20.177Z,14.09
2018-04-29T06:18:48.583Z,14.15
2018-04-29T06:21:16.992Z,14.28
2018-04-29T06:23:46.324Z,14.42
2018-04-29T06:26:14.816Z,14.54
2018-04-29T06:28:43.169Z,14.65
2018-04-29T06:31:11.616Z,14.77
2018-04-29T06:33:40.033Z,14.94
2018-04-29T06:36:08.442Z,15.10
2018-04-29T06:38:36.894Z,15.25
2018-04-29T06:41:05.313Z,15.43
2018-04-29T06:43:33.731Z,15.56
2018-04-29T06:46:02.223Z,15.65
2018-04-29T06:48:30.635Z,15.85
2018-04-29T06:50:59.044Z,15.97
2018-04-29T06:53:27.557Z,16.01
2018-04-29T06:55:55.967Z,16.11
2018-04-29T06:58:24.385Z,16.23
2018-04-29T07:00:52.868Z,16.30
2018-04-29T07:03:21.284Z,16.46
2018-04-29T07:05:49.702Z,16.55
2018-04-29T07:08:18.179Z,16.66
2018-04-29T07:10:46.599Z,16.83
2018-04-29T07:13:15.009Z,16.92
2018-04-29T07:15:43.476Z,16.97
2018-04-29T07:18:11.888Z,16.93
2018-04-29T07:20:40.304Z,17.06
2018-04-29T07:23:08.756Z,17.16
2018-04-29T07:25:37.177Z,17.18
2018-04-29T07:28:05.588Z,17.28
2018-04-29T07:30:34.064Z,17.39
2018-04-29T07:33:02.487Z,17.46
2018-04-29T07:35:30.904Z,17.49
2018-04-29T07:37:59.576Z,17.54
2018-04-29T07:40:27.988Z,17.55
2018-04-29T07:42:56.428Z,17.43
2018-04-29T07:45:24.873Z,17.54
2018-04-29T07:47:53.292Z,17.64
2018-04-29T07:50:21.713Z,17.59
2018-04-29T07:52:50.164Z,17.60
2018-04-29T07:55:18.580Z,17.74
2018-04-29T07:57:47.003Z,17.86
2018-04-29T08:00:15.457Z,17.99
2018-04-29T08:02:43.868Z,18.08
2018-04-29T08:05:12.293Z,18.13
2018-04-29T08:07:40.766Z,18.10
2018-04-29T08:10:09.192Z,18.15
2018-04-29T08:12:37.604Z,18.13
2018-04-29T08:15:06.076Z,18.26
2018-04-29T08:17:34.488Z,18.25
2018-04-29T08:20:02.900Z,18.30
2018-04-29T08:22:31.361Z,18.34
2018-04-29T08:24:59.785Z,18.33
2018-04-29T08:27:28.205Z,18.44
2018-04-29T08:29:56.698Z,18.60
2018-04-29T08:32:25.131Z,18.71
2018-04-29T08:34:53.554Z,18.69
2018-04-29T08:37:22.011Z,18.82
2018-04-29T08:39:50.433Z,18.98
2018-04-29T08:42:18.843Z,19.14
2018-04-29T08:44:47.293Z,19.20
2018-04-29T08:47:15.700Z,19.34
2018-04-29T08:49:44.112Z,19.51
2018-04-29T08:52:12.564Z,19.55
2018-04-29T08:54:40.999Z,19.62
2018-04-29T08:57:09.404Z,19.65
2018-04-29T08:59:37.864Z,19.73
2018-04-29T09:02:06.271Z,19.78
2018-04-29T09:04:34.685Z,19.72
2018-04-29T09:07:03.132Z,19.71
2018-04-29T09:09:31.540Z,19.84
2018-04-29T09:11:59.942Z,19.83
2018-04-29T09:14:28.384Z,20.03
2018-04-29T09:16:56.875Z,20.08
2018-04-29T09:19:25.228Z,20.26
2018-04-29T09:21:53.672Z,20.27
2018-04-29T09:24:22.080Z,20.27
2018-04-29T09:26:50.488Z,20.25
2018-04-29T09:29:18.928Z,20.32
2018-04-29T09:31:47.338Z,20.37
2018-04-29T09:34:15.748Z,20.48
2018-04-29T09:36:44.204Z,20.60
2018-04-29T09:39:12.608Z,20.70
2018-04-29T09:41:41.037Z,20.89
2018-04-29T09:44:09.514Z,20.79
2018-04-29T09:46:37.965Z,20.74
2018-04-29T09:49:06.368Z,20.71
2018-04-29T09:51:34.865Z,20.68
2018-04-29T09:54:03.284Z,20.79
2018-04-29T09:56:31.684Z,20.92
2018-04-29T09:59:00.130Z,20.94
2018-04-29T10:01:28.554Z,21.01
2018-04-29T10:03:56.952Z,21.05
2018-04-29T10:06:25.403Z,20.95
2018-04-29T10:08:53.822Z,20.78
2018-04-29T10:11:22.848Z,20.64
2018-04-29T10:13:51.636Z,20.47
2018-04-29T10:16:20.060Z,20.44
2018-04-29T10:18:48.547Z,20.38
2018-04-29T10:21:16.941Z,20.31
2018-04-29T10:23:45.372Z,20.24
2018-04-29T10:26:13.784Z,20.19
2018-04-29T10:28:42.239Z,20.25
2018-04-29T10:31:10.649Z,20.37
2018-04-29T10:33:39.081Z,20.45
2018-04-29T10:36:07.543Z,20.53
2018-04-29T10:38:36.012Z,20.95
2018-04-29T10:41:04.501Z,21.35
2018-04-29T10:43:32.889Z,21.58
2018-04-29T10:46:01.296Z,21.59
2018-04-29T10:48:29.727Z,21.66
2018-04-29T10:50:58.173Z,21.67
2018-04-29T10:53:26.591Z,21.98
2018-04-29T10:55:54.996Z,22.02
2018-04-29T10:58:23.455Z,21.88
2018-04-29T11:00:51.948Z,21.91
2018-04-29T11:03:20.352Z,22.01
2018-04-29T11:05:48.843Z,22.27
2018-04-29T11:08:17.251Z,22.26
2018-04-29T11:10:45.660Z,22.00
2018-04-29T11:13:14.126Z,21.95
2018-04-29T11:15:42.532Z,21.90
2018-04-29T11:18:10.952Z,21.94
2018-04-29T11:20:39.400Z,21.83
2018-04-29T11:23:07.804Z,21.76
2018-04-29T11:25:36.205Z,21.76
2018-04-29T11:28:04.653Z,21.83
2018-04-29T11:30:33.098Z,21.87
2018-04-29T11:33:01.534Z,22.01
2018-04-29T11:35:29.988Z,22.10
2018-04-29T11:37:58.390Z,22.13
2018-04-29T11:40:26.886Z,22.06
2018-04-29T11:42:55.279Z,22.06
2018-04-29T11:45:23.687Z,22.03
2018-04-29T11:47:52.088Z,22.00
2018-04-29T11:50:20.541Z,21.93
2018-04-29T11:52:48.956Z,21.96
2018-04-29T11:55:17.367Z,21.99
2018-04-29T11:57:45.816Z,22.06
2018-04-29T12:00:14.219Z,22.11
2018-04-29T12:02:42.628Z,22.12
2018-04-29T12:05:11.079Z,22.09
2018-04-29T12:07:39.489Z,22.17
2018-04-29T12:10:07.897Z,22.20
2018-04-29T12:12:36.392Z,22.06
2018-04-29T12:15:04.824Z,22.00
2018-04-29T12:17:33.232Z,21.92
2018-04-29T12:20:01.688Z,22.05
2018-04-29T12:22:30.096Z,22.42
2018-04-29T12:24:58.503Z,22.66
2018-04-29T12:27:27.244Z,22.61
2018-04-29T12:29:55.656Z,22.36
2018-04-29T12:32:24.062Z,22.09
2018-04-29T12:34:52.525Z,21.96
2018-04-29T12:37:20.933Z,21.96
2018-04-29T12:39:49.356Z,22.30
2018-04-29T12:42:18.048Z,22.68
2018-04-29T12:44:46.464Z,23.10
2018-04-29T12:47:14.864Z,23.25
2018-04-29T12:49:43.320Z,23.40
2018-04-29T12:52:11.793Z,23.47
2018-04-29T12:54:40.164Z,23.66
2018-04-29T12:57:08.616Z,23.73
2018-04-29T12:59:37.024Z,23.74
2018-04-29T13:02:05.432Z,23.85
2018-04-29T13:04:34.077Z,23.77
2018-04-29T13:07:02.492Z,23.78
2018-04-29T13:09:30.904Z,23.82
2018-04-29T13:11:59.356Z,23.71
2018-04-29T13:14:27.768Z,23.75
2018-04-29T13:16:56.184Z,23.68
2018-04-29T13:19:24.632Z,23.68
2018-04-29T13:21:53.119Z,23.80
2018-04-29T13:24:21.489Z,23.77
2018-04-29T13:26:49.948Z,23.42
2018-04-29T13:29:18.385Z,23.47
2018-04-29T13:31:46.802Z,23.67
2018-04-29T13:34:15.256Z,23.61
2018-04-29T13:36:43.665Z,23.71
2018-04-29T13:39:12.085Z,23.77
2018-04-29T13:41:40.551Z,23.70
2018-04-29T13:44:08.984Z,23.51
2018-04-29T13:46:37.396Z,23.54
2018-04-29T13:49:05.863Z,23.69
2018-04-29T13:51:34.275Z,23.76
2018-04-29T13:54:02.709Z,23.76
2018-04-29T13:56:31.202Z,23.70
2018-04-29T13:58:59.629Z,23.61
2018-04-29T14:01:28.063Z,23.59
2018-04-29T14:06:31.480Z,23.88
2018-04-29T14:08:59.932Z,23.95
2018-04-29T14:11:28.350Z,23.96
2018-04-29T14:13:56.772Z,23.98
2018-04-29T14:16:25.232Z,23.95
2018-04-29T14:18:53.656Z,23.81
2018-04-29T14:21:22.072Z,23.72
2018-04-29T14:23:50.554Z,23.68
2018-04-29T14:26:18.992Z,23.59
2018-04-29T14:28:47.416Z,23.39
2018-04-29T14:31:15.948Z,23.23
2018-04-29T14:33:44.693Z,23.08
2018-04-29T14:36:13.100Z,22.94
2018-04-29T14:38:41.551Z,22.87
2018-04-29T14:41:09.953Z,22.85
2018-04-29T14:43:38.378Z,22.87
2018-04-29T14:46:06.848Z,22.82
2018-04-29T14:48:35.260Z,22.80
2018-04-29T14:51:03.673Z,22.79
2018-04-29T14:53:32.131Z,22.91
2018-04-29T14:56:00.546Z,23.02
2018-04-29T14:58:28.965Z,23.08
2018-04-29T15:00:57.416Z,23.06
2018-04-29T15:03:25.831Z,23.10
2018-04-29T15:05:54.249Z,23.06
2018-04-29T15:08:22.700Z,23.01
2018-04-29T15:10:51.144Z,22.99
2018-04-29T15:13:19.564Z,22.99
2018-04-29T15:15:48.016Z,22.97
2018-04-29T15:18:28.336Z,22.91
2018-04-29T15:20:56.787Z,22.86
2018-04-29T15:23:25.190Z,22.83
2018-04-29T15:25:53.612Z,22.76
2018-04-29T15:28:22.056Z,22.79
2018-04-29T15:30:50.461Z,22.79
2018-04-29T15:33:18.869Z,22.75
2018-04-29T15:35:47.316Z,22.82
2018-04-29T15:38:15.741Z,22.92
2018-04-29T15:40:44.162Z,23.08
2018-04-29T15:43:12.621Z,23.12
2018-04-29T15:45:41.033Z,23.15
2018-04-29T15:48:09.435Z,23.22
2018-04-29T15:50:37.901Z,23.37
2018-04-29T15:53:06.317Z,23.37
2018-04-29T15:55:34.727Z,23.42
2018-04-29T15:58:03.256Z,23.31
2018-04-29T16:00:31.974Z,23.24
2018-04-29T16:03:00.390Z,23.24
2018-04-29T16:05:29.092Z,23.20
2018-04-29T16:07:57.493Z,23.30
2018-04-29T16:10:25.903Z,23.33
2018-04-29T16:12:54.343Z,23.39
2018-04-29T16:15:22.781Z,23.27
2018-04-29T16:17:51.188Z,23.25
2018-04-29T16:20:19.640Z,23.21
2018-04-29T16:22:48.051Z,23.15
2018-04-29T16:25:16.456Z,23.15
2018-04-29T16:27:44.901Z,23.10
2018-04-29T16:30:13.316Z,23.04
2018-04-29T16:32:41.727Z,22.94
2018-04-29T16:35:10.176Z,22.86
2018-04-29T16:37:38.615Z,22.84
2018-04-29T16:40:07.023Z,22.72
2018-04-29T16:42:36.283Z,22.72
2018-04-29T16:45:04.693Z,22.69
2018-04-29T16:47:33.108Z,22.68
2018-04-29T16:50:01.557Z,22.71
2018-04-29T16:52:29.963Z,22.65
2018-04-29T16:54:58.377Z,22.59
2018-04-29T16:57:26.844Z,22.57
2018-04-29T16:59:55.318Z,22.58
2018-04-29T17:02:23.724Z,22.56
2018-04-29T17:04:52.188Z,22.53
2018-04-29T17:07:20.607Z,22.50
2018-04-29T17:09:49.029Z,22.46
2018-04-29T17:12:17.478Z,22.36
2018-04-29T17:14:45.893Z,22.31
2018-04-29T17:17:14.312Z,22.27
2018-04-29T17:19:42.782Z,22.24
2018-04-29T17:22:11.200Z,22.15
2018-04-29T17:24:39.613Z,22.10
2018-04-29T17:27:08.068Z,22.08
2018-04-29T17:29:36.495Z,22.05
2018-04-29T17:32:04.901Z,22.02
2018-04-29T17:34:33.352Z,22.01
2018-04-29T17:37:01.769Z,21.98
2018-04-29T17:39:30.193Z,21.94
2018-04-29T17:41:58.645Z,21.91
2018-04-29T17:44:27.048Z,21.94
2018-04-29T17:46:55.467Z,21.91
2018-04-29T17:49:23.928Z,21.82
2018-04-29T17:51:52.346Z,21.81
2018-04-29T17:54:20.758Z,21.75
2018-04-29T17:56:49.224Z,21.68
2018-04-29T17:59:17.643Z,21.64
2018-04-29T18:01:46.081Z,21.56
2018-04-29T18:04:14.528Z,21.52
2018-04-29T18:06:42.943Z,21.45
2018-04-29T18:09:11.364Z,21.39
2018-04-29T18:11:39.812Z,21.28
2018-04-29T18:14:08.212Z,21.24
2018-04-29T18:16:36.620Z,21.19
2018-04-29T18:19:05.085Z,21.12
2018-04-29T18:21:33.507Z,21.08
2018-04-29T18:24:01.921Z,20.98
2018-04-29T18:26:30.387Z,20.94
2018-04-29T18:28:58.807Z,20.88
2018-04-29T18:31:27.217Z,20.83
2018-04-29T18:33:55.684Z,20.79
2018-04-29T18:36:24.093Z,20.77
2018-04-29T18:38:52.578Z,20.71
2018-04-29T18:41:20.994Z,20.66
2018-04-29T18:43:49.416Z,20.61
2018-04-29T18:46:17.837Z,20.57
2018-04-29T18:48:46.304Z,20.53
2018-04-29T18:51:14.773Z,20.46
2018-04-29T18:53:43.170Z,20.43
2018-04-29T18:56:11.678Z,20.37
2018-04-29T18:58:40.068Z,20.34
2018-04-29T19:01:08.476Z,20.28
2018-04-29T19:03:36.953Z,20.27
2018-04-29T19:06:05.369Z,20.23
2018-04-29T19:08:33.768Z,20.19
2018-04-29T19:11:02.239Z,20.17
2018-04-29T19:13:30.648Z,20.19
2018-04-29T19:15:59.056Z,20.16
2018-04-29T19:18:27.504Z,20.13
2018-04-29T19:20:55.916Z,20.03
2018-04-29T19:23:24.328Z,19.99
2018-04-29T19:25:52.777Z,19.92
2018-04-29T19:28:21.185Z,19.94
2018-04-29T19:30:49.592Z,19.97
2018-04-29T19:33:18.056Z,19.97
2018-04-29T19:35:46.472Z,20.00
2018-04-29T19:38:14.881Z,19.97
2018-04-29T19:40:43.340Z,19.93
2018-04-29T19:43:11.740Z,19.89
2018-04-29T19:45:40.147Z,19.84
2018-04-29T19:48:08.607Z,19.77
2018-04-29T19:50:37.033Z,19.76
2018-04-29T19:53:05.471Z,19.67
2018-04-29T19:55:33.935Z,19.69
2018-04-29T19:58:02.340Z,19.62
2018-04-29T20:00:30.756Z,19.70
2018-04-29T20:02:59.207Z,19.66
2018-04-29T20:05:27.629Z,19.61
2018-04-29T20:07:56.036Z,19.66
2018-04-29T20:10:24.512Z,19.62
2018-04-29T20:12:52.928Z,19.55
2018-04-29T20:15:21.336Z,19.49
2018-04-29T20:17:49.790Z,19.45
2018-04-29T20:20:18.204Z,19.43
2018-04-29T20:22:46.630Z,19.44
2018-04-29T20:25:15.094Z,19.42
2018-04-29T20:27:43.496Z,19.42
2018-04-29T20:30:11.900Z,19.36
2018-04-29T20:32:55.240Z,19.28
2018-04-29T20:35:23.661Z,19.21
2018-04-29T20:37:52.114Z,19.17
2018-04-29T20:40:20.557Z,19.14
2018-04-29T20:42:48.976Z,18.98
2018-04-29T20:45:17.616Z,18.87
2018-04-29T20:47:46.097Z,18.65
2018-04-29T20:50:14.522Z,18.56
2018-04-29T20:52:42.945Z,18.41
2018-04-29T20:55:11.470Z,18.37
2018-04-29T20:57:39.866Z,18.30
2018-04-29T21:00:08.327Z,18.26
2018-04-29T21:02:36.809Z,18.25
2018-04-29T21:05:05.270Z,18.24
2018-04-29T21:07:33.714Z,18.24
2018-04-29T21:10:02.188Z,18.24
2018-04-29T21:12:30.602Z,18.20
2018-04-29T21:14:59.016Z,18.19
2018-04-29T21:17:27.564Z,18.16
2018-04-29T21:19:55.908Z,18.17
2018-04-29T21:22:24.390Z,18.17
2018-04-29T21:24:52.812Z,18.15
2018-04-29T21:27:21.225Z,18.12
2018-04-29T21:29:49.625Z,18.04
2018-04-29T21:32:18.097Z,17.98
2018-04-29T21:34:46.540Z,17.93
2018-04-29T21:37:14.983Z,17.85
2018-04-29T21:39:43.442Z,17.77
2018-04-29T21:42:11.860Z,17.80
2018-04-29T21:44:40.271Z,17.73
2018-04-29T21:47:08.739Z,17.66
2018-04-29T21:49:37.157Z,17.59
2018-04-29T21:52:05.585Z,17.56
2018-04-29T21:54:34.055Z,17.51
2018-04-29T21:57:02.484Z,17.47
2018-04-29T21:59:30.901Z,17.45
2018-04-29T22:01:59.362Z,17.46
2018-04-29T22:04:27.781Z,17.51
2018-04-29T22:06:56.201Z,17.58
2018-04-29T22:09:24.685Z,17.63
2018-04-29T22:11:53.112Z,17.66
2018-04-29T22:14:21.528Z,17.70
2018-04-29T22:16:50.009Z,17.71
2018-04-29T22:19:18.429Z,17.73
2018-04-29T22:21:46.861Z,17.69
2018-04-29T22:24:15.316Z,17.71
2018-04-29T22:26:43.744Z,17.68
2018-04-29T22:29:12.149Z,17.64
2018-04-29T22:31:40.709Z,17.62
2018-04-29T22:34:09.118Z,17.61
2018-04-29T22:36:37.589Z,17.59
2018-04-29T22:39:06.100Z,17.57
2018-04-29T22:41:34.522Z,17.49
2018-04-29T22:44:02.945Z,17.49
2018-04-29T22:46:31.432Z,17.43
2018-04-29T22:48:59.842Z,17.39
2018-04-29T22:51:28.268Z,17.42
2018-04-29T22:53:56.740Z,17.44
2018-04-29T22:56:25.145Z,17.40
2018-04-29T22:58:53.568Z,17.42
2018-04-29T23:01:22.044Z,17.44
2018-04-29T23:03:50.505Z,17.41
2018-04-29T23:06:18.924Z,17.41
2018-04-29T23:08:47.408Z,17.43
2018-04-29T23:11:15.829Z,17.41
2018-04-29T23:13:44.280Z,17.47
2018-04-29T23:16:12.736Z,17.48
2018-04-29T23:18:41.152Z,17.51
2018-04-29T23:21:09.573Z,17.53
2018-04-29T23:23:38.044Z,17.54
2018-04-29T23:26:06.468Z,17.55
2018-04-29T23:28:34.896Z,17.57
2018-04-29T23:31:03.379Z,17.56
2018-04-29T23:33:31.816Z,17.56
2018-04-29T23:36:00.224Z,17.55
2018-04-29T23:38:28.689Z,17.53
2018-04-29T23:40:57.112Z,17.54
2018-04-29T23:43:25.544Z,17.50
2018-04-29T23:45:54.031Z,17.52
2018-04-29T23:48:22.458Z,17.49
2018-04-29T23:50:50.864Z,17.46
2018-04-29T23:53:19.348Z,17.45
2018-04-29T23:55:47.756Z,17.44
2018-04-29T23:58:16.185Z,17.41
